Time;durP1;ratioP1;P1;durP2;ratioP2;P2;SDS_P1;SDS_P2;PMS_P1;PMS_P2;Temp;Humidity;BMP_temperature;BMP_pressure;BME280_temperature;BME280_humidity;BME280_pressure;Samples;Min_cycle;Max_cycle;Signal;HPM_P1;HPM_P2
2021/03/01 00:01:15;;;;;;;21.05;12.98;;;;;;;1.38;87.57;100875.34;1806611;79;21125;-78
2021/03/01 00:03:44;;;;;;;22.52;12.70;;;;;;;1.37;87.67;100873.63;1806579;79;21338;-78
2021/03/01 00:06:12;;;;;;;21.68;13.13;;;;;;;1.36;87.74;100871.92;1806547;79;21452;-63
2021/03/01 00:08:42;;;;;;;22.13;13.32;;;;;;;1.34;87.82;100868.08;1806572;79;20946;-66
2021/03/01 00:11:10;;;;;;;18.02;12.15;;;;;;;1.36;87.92;100869.79;1806615;79;21334;-68
2021/03/01 00:13:41;;;;;;;24.65;13.05;;;;;;;1.36;87.99;100871.07;1806488;79;21033;-71
2021/03/01 00:16:09;;;;;;;16.20;11.60;;;;;;;1.38;87.95;100871.48;1806493;79;21524;-78
2021/03/01 00:18:39;;;;;;;15.10;10.88;;;;;;;1.38;87.97;100874.05;1818141;77;21432;-78
2021/03/01 00:21:07;;;;;;;13.58;10.50;;;;;;;1.39;87.90;100882.61;1824294;77;20934;-76
2021/03/01 00:23:35;;;;;;;15.25;11.18;;;;;;;1.39;87.89;100887.73;1824362;78;21610;-78
2021/03/01 00:26:04;;;;;;;16.70;10.78;;;;;;;1.39;87.87;100891.59;1824295;78;22150;-78
2021/03/01 00:28:32;;;;;;;14.58;11.20;;;;;;;1.39;87.89;100896.72;1824313;78;21483;-78
2021/03/01 00:31:00;;;;;;;12.78;10.00;;;;;;;1.40;87.86;100902.27;1824334;78;21483;-62
2021/03/01 00:33:29;;;;;;;15.72;11.38;;;;;;;1.38;87.86;100907.41;1824336;78;21563;-65
2021/03/01 00:35:59;;;;;;;14.07;10.50;;;;;;;1.38;87.88;100907.41;1824272;78;20989;-62
2021/03/01 00:38:28;;;;;;;12.98;9.68;;;;;;;1.37;87.93;100904.42;1824274;78;22154;-61
2021/03/01 00:40:56;;;;;;;12.85;10.18;;;;;;;1.36;87.90;100905.71;1824244;78;21602;-61
2021/03/01 00:43:24;;;;;;;12.35;9.73;;;;;;;1.35;87.92;100902.29;1824323;78;20886;-62
2021/03/01 00:45:52;;;;;;;15.03;10.53;;;;;;;1.32;87.88;100906.16;1824288;78;21540;-78
2021/03/01 00:48:21;;;;;;;13.00;10.20;;;;;;;1.32;87.92;100916.42;1824374;78;21483;-78
2021/03/01 00:50:50;;;;;;;14.03;11.00;;;;;;;1.29;87.97;100914.72;1824321;78;22163;-75
2021/03/01 00:53:25;;;;;;;12.53;10.53;;;;;;;1.27;88.07;100911.30;1824284;78;21554;-78
2021/03/01 00:55:54;;;;;;;13.75;10.13;;;;;;;1.27;88.12;100916.44;1824597;78;21321;-78
2021/03/01 00:58:22;;;;;;;13.70;10.53;;;;;;;1.27;88.25;100926.69;1824332;78;21470;-78
2021/03/01 01:00:51;;;;;;;12.82;10.10;;;;;;;1.26;88.16;100919.00;1824780;78;20929;-62
2021/03/01 01:03:21;;;;;;;14.90;9.73;;;;;;;1.26;88.11;100924.13;1824992;77;21333;-61
2021/03/01 01:05:52;;;;;;;14.20;10.55;;;;;;;1.24;88.20;100926.70;1820669;78;21479;-61
2021/03/01 01:08:20;;;;;;;13.48;10.08;;;;;;;1.25;88.31;100931.41;1825277;78;21337;-63
2021/03/01 01:10:49;;;;;;;14.07;10.23;;;;;;;1.27;88.34;100931.83;1824350;78;21554;-61
2021/03/01 01:13:17;;;;;;;13.20;10.43;;;;;;;1.29;88.29;100931.82;1824365;78;21582;-61
2021/03/01 01:15:46;;;;;;;11.55;9.60;;;;;;;1.31;88.34;100936.52;1824358;78;21926;-74
2021/03/01 01:18:14;;;;;;;13.25;10.20;;;;;;;1.31;88.20;100936.09;1818209;78;21567;-74
2021/03/01 01:20:43;;;;;;;10.85;9.68;;;;;;;1.32;88.23;100937.80;1806539;79;21298;-71
2021/03/01 01:23:12;;;;;;;12.93;9.88;;;;;;;1.33;88.13;100940.78;1806456;79;21347;-60
2021/03/01 01:25:41;;;;;;;12.53;9.55;;;;;;;1.32;88.07;100945.92;1806532;79;21552;-61
2021/03/01 01:28:10;;;;;;;11.95;8.63;;;;;;;1.31;88.08;100946.35;1806521;79;21343;-61
2021/03/01 01:30:39;;;;;;;12.40;9.50;;;;;;;1.31;88.06;100953.20;1806427;78;21590;-78
2021/03/01 01:33:08;;;;;;;13.22;9.28;;;;;;;1.28;88.08;100951.92;1806457;79;20982;-78
2021/03/01 01:35:36;;;;;;;13.03;9.00;;;;;;;1.27;88.08;100955.34;1806473;79;21092;-77
2021/03/01 01:38:05;;;;;;;11.30;8.63;;;;;;;1.24;88.03;100955.35;1806511;79;20910;-78
2021/03/01 01:40:34;;;;;;;11.97;9.05;;;;;;;1.22;88.10;100959.20;1806487;79;22165;-78
2021/03/01 01:43:03;;;;;;;12.50;8.35;;;;;;;1.21;88.23;100960.06;1806409;79;21500;-78
2021/03/01 01:45:31;;;;;;;10.68;7.87;;;;;;;1.21;88.27;100965.20;1806528;79;20918;-78
2021/03/01 01:48:00;;;;;;;9.58;8.03;;;;;;;1.22;88.23;100975.03;1806485;78;21558;-78
2021/03/01 01:50:30;;;;;;;9.70;7.78;;;;;;;1.21;88.28;100974.17;1806559;79;21579;-77
2021/03/01 01:52:58;;;;;;;9.30;7.20;;;;;;;1.22;88.34;100975.03;1806547;79;21200;-78
2021/03/01 01:55:26;;;;;;;8.23;7.40;;;;;;;1.22;88.32;100977.59;1806591;79;21630;-78
2021/03/01 01:57:55;;;;;;;9.13;7.40;;;;;;;1.22;88.32;100987.42;1806672;79;21369;-78
2021/03/01 02:03:31;;;;;;;8.20;7.22;;;;;;;1.23;88.20;100988.28;1806655;79;21009;-66
2021/03/01 02:06:13;;;;;;;8.65;7.17;;;;;;;1.20;88.21;100989.14;1806646;78;21921;-61
2021/03/01 02:09:02;;;;;;;8.68;7.53;;;;;;;1.21;88.31;100997.69;1806627;79;21492;-65
2021/03/01 02:12:08;;;;;;;10.20;7.85;;;;;;;1.20;88.19;100997.30;1798878;79;21049;-62
2021/03/01 02:14:57;;;;;;;9.45;7.50;;;;;;;1.17;88.30;100996.87;1806579;79;21457;-69
2021/03/01 02:17:26;;;;;;;7.47;6.72;;;;;;;1.15;88.26;100990.03;1806716;79;21630;-78
2021/03/01 02:19:55;;;;;;;8.70;7.35;;;;;;;1.14;88.38;100984.48;1806620;78;22149;-78
2021/03/01 02:22:26;;;;;;;9.00;6.42;;;;;;;1.14;88.43;100989.18;1806567;79;20930;-73
2021/03/01 02:25:00;;;;;;;8.40;6.75;;;;;;;1.15;88.46;100990.03;1806684;79;20942;-78
2021/03/01 02:27:30;;;;;;;7.65;6.83;;;;;;;1.16;88.42;100992.60;1806543;79;20993;-77
2021/03/01 02:30:28;;;;;;;7.80;6.62;;;;;;;1.18;88.41;100996.02;1806815;79;21421;-77
2021/03/01 02:33:04;;;;;;;7.60;6.85;;;;;;;1.20;88.27;100998.12;1806636;79;22226;-60
2021/03/01 02:35:34;;;;;;;8.38;7.08;;;;;;;1.21;88.10;101002.82;1806571;79;20981;-61
2021/03/01 02:38:05;;;;;;;7.40;6.62;;;;;;;1.20;87.99;101008.84;1806639;79;20919;-61
2021/03/01 02:40:34;;;;;;;7.12;6.42;;;;;;;1.18;88.02;101012.69;1806721;79;21491;-61
2021/03/01 02:43:03;;;;;;;7.10;6.40;;;;;;;1.21;87.95;101024.63;1806655;79;20914;-62
2021/03/01 02:45:31;;;;;;;9.05;7.45;;;;;;;1.21;87.83;101024.63;1806595;79;21480;-62
2021/03/01 02:48:00;;;;;;;9.38;7.95;;;;;;;1.19;87.68;101029.79;1806669;79;21558;-78
2021/03/01 02:50:29;;;;;;;10.10;7.80;;;;;;;1.18;87.81;101034.92;1806636;78;20934;-77
2021/03/01 02:52:57;;;;;;;8.23;7.40;;;;;;;1.19;87.81;101043.90;1806531;79;20978;-77
2021/03/01 02:55:26;;;;;;;10.05;7.78;;;;;;;1.18;87.81;101043.47;1806742;79;21614;-77
2021/03/01 02:57:56;;;;;;;10.08;7.60;;;;;;;1.18;87.91;101045.19;1803268;79;21446;-77
2021/03/01 03:00:25;;;;;;;8.88;7.30;;;;;;;1.19;87.88;101046.47;1806619;79;21488;-77
2021/03/01 03:02:53;;;;;;;9.38;7.22;;;;;;;1.21;87.83;101040.87;1806577;79;21044;-77
2021/03/01 03:05:21;;;;;;;8.88;7.12;;;;;;;1.21;87.73;101048.56;1806579;79;21480;-77
2021/03/01 03:07:50;;;;;;;10.58;7.70;;;;;;;1.19;87.71;101051.59;1806664;79;21523;-77
2021/03/01 03:10:19;;;;;;;11.20;8.63;;;;;;;1.19;87.74;101050.74;1806684;79;21350;-77
2021/03/01 03:12:47;;;;;;;9.93;7.67;;;;;;;1.19;87.77;101056.73;1806687;79;21380;-77
2021/03/01 03:15:18;;;;;;;13.20;9.33;;;;;;;1.19;87.79;101055.44;1806692;78;21310;-77
2021/03/01 03:17:47;;;;;;;12.18;9.15;;;;;;;1.20;87.80;101058.41;1806695;79;21499;-74
2021/03/01 03:20:16;;;;;;;13.32;8.68;;;;;;;1.23;87.79;101054.55;1822497;78;20970;-77
2021/03/01 03:22:44;;;;;;;11.83;8.60;;;;;;;1.24;87.77;101052.84;1824363;78;21184;-77
2021/03/01 03:25:13;;;;;;;11.73;8.63;;;;;;;1.24;87.71;101047.71;1824307;78;21408;-77
2021/03/01 03:27:41;;;;;;;9.40;7.97;;;;;;;1.25;87.75;101051.56;1824370;78;21333;-77
2021/03/01 03:30:16;;;;;;;9.68;8.28;;;;;;;1.25;87.74;101059.25;1824365;78;21571;-77
2021/03/01 03:32:45;;;;;;;9.23;7.60;;;;;;;1.26;87.72;101062.67;1824502;78;21499;-77
2021/03/01 03:35:14;;;;;;;9.93;8.50;;;;;;;1.28;87.69;101066.95;1824454;78;22291;-77
2021/03/01 03:37:52;;;;;;;12.47;9.48;;;;;;;1.28;87.70;101063.09;1824293;78;20997;-77
2021/03/01 03:40:20;;;;;;;10.20;8.23;;;;;;;1.30;87.67;101068.23;1824421;77;21579;-77
2021/03/01 03:42:49;;;;;;;9.55;8.48;;;;;;;1.30;87.57;101065.23;1824295;78;21621;-78
2021/03/01 03:45:17;;;;;;;9.78;8.60;;;;;;;1.29;87.54;101071.22;1824372;78;21578;-77
2021/03/01 03:47:48;;;;;;;15.75;9.45;;;;;;;1.29;87.52;101069.94;1824337;78;21229;-77
2021/03/01 03:50:16;;;;;;;15.65;11.45;;;;;;;1.30;87.51;101066.95;1824289;78;20942;-77
2021/03/01 03:52:46;;;;;;;9.80;8.75;;;;;;;1.31;87.38;101078.92;1824359;78;21550;-78
2021/03/01 03:55:18;;;;;;;11.78;8.95;;;;;;;1.30;87.31;101084.91;1824269;78;20898;-77
2021/03/01 03:57:57;;;;;;;12.23;10.38;;;;;;;1.28;87.31;101086.19;1824404;78;21040;-78
2021/03/01 04:00:28;;;;;;;31.87;27.35;;;;;;;1.26;87.30;101089.19;1824376;78;21467;-61
2021/03/01 04:03:00;;;;;;;14.87;12.70;;;;;;;1.26;87.30;101097.31;1824293;78;21012;-77
2021/03/01 04:05:29;;;;;;;17.12;14.20;;;;;;;1.23;87.32;101102.02;1823911;78;20945;-74
2021/03/01 04:07:57;;;;;;;16.37;14.60;;;;;;;1.22;87.34;101100.73;1824307;78;21566;-75
2021/03/01 04:10:30;;;;;;;37.17;33.33;;;;;;;1.20;87.36;101103.76;1824373;78;21352;-72
2021/03/01 04:12:59;;;;;;;10.68;9.58;;;;;;;1.19;87.34;101105.47;1824340;78;21188;-75
2021/03/01 04:15:29;;;;;;;11.03;9.05;;;;;;;1.16;87.31;101114.45;1824324;78;21559;-75
2021/03/01 04:17:57;;;;;;;9.75;8.13;;;;;;;1.13;87.38;101114.45;1824418;78;21550;-77
2021/03/01 04:20:26;;;;;;;21.95;15.93;;;;;;;1.10;87.74;101127.70;1809291;78;21563;-69
2021/03/01 04:22:56;;;;;;;23.45;17.02;;;;;;;1.10;88.06;101125.98;1806619;79;21468;-77
2021/03/01 04:25:25;;;;;;;14.07;11.97;;;;;;;1.12;88.42;101134.97;1784961;79;21990;-77
2021/03/01 04:27:53;;;;;;;12.47;10.53;;;;;;;1.15;88.53;101140.09;1806504;79;21504;-70
2021/03/01 04:30:23;;;;;;;10.43;8.90;;;;;;;1.17;88.54;101143.09;1806591;79;21354;-76
2021/03/01 04:32:52;;;;;;;12.25;10.78;;;;;;;1.19;88.37;101145.23;1806538;79;20922;-64
2021/03/01 04:35:21;;;;;;;16.25;13.43;;;;;;;1.21;88.42;101153.75;1806550;79;21563;-62
2021/03/01 04:37:49;;;;;;;42.17;31.52;;;;;;;1.24;88.35;101158.03;1759289;79;22347;-66
2021/03/01 04:40:19;;;;;;;41.42;32.65;;;;;;;1.25;88.27;101161.88;1806500;79;21503;-61
2021/03/01 04:42:47;;;;;;;14.60;11.93;;;;;;;1.27;88.20;101169.15;1806533;79;21029;-61
2021/03/01 04:45:17;;;;;;;10.75;9.23;;;;;;;1.29;87.83;101170.43;1806598;79;21341;-63
2021/03/01 04:47:47;;;;;;;11.35;10.15;;;;;;;1.26;87.59;101173.00;1806548;79;20887;-61
2021/03/01 04:50:17;;;;;;;10.58;9.33;;;;;;;1.21;87.58;101179.83;1806493;79;21350;-61
2021/03/01 04:52:46;;;;;;;11.35;9.75;;;;;;;1.16;87.64;101188.84;1806471;79;20938;-61
2021/03/01 04:55:15;;;;;;;10.25;9.23;;;;;;;1.14;87.73;101190.97;1806517;79;21314;-62
2021/03/01 04:57:43;;;;;;;11.00;9.13;;;;;;;1.10;87.91;101196.52;1806480;79;21057;-61
2021/03/01 05:00:13;;;;;;;9.28;8.23;;;;;;;1.09;88.21;101204.22;1806523;79;21488;-61
2021/03/01 05:02:41;;;;;;;10.38;9.28;;;;;;;1.09;88.47;101206.36;1806486;79;21190;-61
2021/03/01 05:05:11;;;;;;;11.78;10.43;;;;;;;1.09;88.65;101202.94;1806503;79;21456;-61
2021/03/01 05:07:39;;;;;;;23.65;16.40;;;;;;;1.13;88.84;101209.36;1806537;78;21349;-63
2021/03/01 05:10:09;;;;;;;43.73;26.73;;;;;;;1.17;88.92;101210.22;1806486;79;21615;-68
2021/03/01 05:12:37;;;;;;;43.48;28.38;;;;;;;1.21;88.92;101212.76;1784660;79;20946;-63
2021/03/01 05:15:07;;;;;;;36.58;24.55;;;;;;;1.27;88.71;101214.47;1806521;79;21269;-62
2021/03/01 05:17:38;;;;;;;33.65;22.52;;;;;;;1.28;88.40;101223.88;1806479;79;21021;-75
2021/03/01 05:20:09;;;;;;;40.98;25.45;;;;;;;1.28;88.26;101235.43;1816791;78;20970;-71
2021/03/01 05:22:38;;;;;;;50.67;30.52;;;;;;;1.26;88.25;101239.28;1824267;78;20977;-72
2021/03/01 05:25:08;;;;;;;51.65;30.35;;;;;;;1.21;88.37;101240.98;1824288;78;21634;-73
2021/03/01 05:27:36;;;;;;;41.30;26.27;;;;;;;1.20;88.47;101244.39;1824392;78;21188;-65
2021/03/01 05:30:08;;;;;;;34.00;21.97;;;;;;;1.20;88.68;101244.86;1824423;78;21008;-75
2021/03/01 05:32:37;;;;;;;29.72;21.62;;;;;;;1.20;88.77;101248.70;1824468;78;21032;-75
2021/03/01 05:35:07;;;;;;;32.13;23.40;;;;;;;1.19;88.90;101254.27;1824390;78;20922;-61
2021/03/01 05:37:36;;;;;;;28.02;21.23;;;;;;;1.20;89.00;101252.09;1824489;78;20941;-63
2021/03/01 05:40:05;;;;;;;28.15;20.57;;;;;;;1.24;89.31;101249.97;1824478;78;22162;-61
2021/03/01 05:42:35;;;;;;;20.27;16.23;;;;;;;1.29;89.28;101249.97;1824402;78;21013;-61
2021/03/01 05:45:06;;;;;;;16.95;14.20;;;;;;;1.35;89.20;101256.40;1824566;78;21349;-61
2021/03/01 05:47:35;;;;;;;18.07;13.03;;;;;;;1.41;89.32;101255.55;1824412;78;20937;-63
2021/03/01 05:50:06;;;;;;;18.10;13.05;;;;;;;1.51;89.23;101264.98;1823421;78;20933;-76
2021/03/01 05:52:36;;;;;;;21.52;16.97;;;;;;;1.58;89.05;101264.13;1809814;78;21109;-72
2021/03/01 05:55:08;;;;;;;22.98;18.05;;;;;;;1.66;89.05;101265.81;1799758;77;21873;-69
2021/03/01 05:57:39;;;;;;;17.75;15.30;;;;;;;1.77;88.96;101277.37;1810359;77;21729;-65
2021/03/01 06:00:11;;;;;;;22.22;16.77;;;;;;;1.88;89.01;101274.80;1808051;77;21664;-76
2021/03/01 06:02:40;;;;;;;18.35;14.10;;;;;;;1.97;88.55;101280.80;1813491;78;21108;-73
2021/03/01 06:05:12;;;;;;;16.15;13.18;;;;;;;2.05;88.15;101282.47;1824691;77;21198;-74
2021/03/01 06:07:40;;;;;;;21.05;14.55;;;;;;;2.14;87.69;101291.45;1758968;80;21088;-62
2021/03/01 06:10:10;;;;;;;20.48;16.15;;;;;;;2.15;87.19;101295.31;1807599;77;21582;-70
2021/03/01 06:12:39;;;;;;;22.32;15.10;;;;;;;2.19;87.12;101292.31;1805911;78;21012;-65
2021/03/01 06:15:10;;;;;;;25.35;20.02;;;;;;;2.25;86.71;101297.02;1811539;77;21024;-70
2021/03/01 06:17:38;;;;;;;19.65;15.18;;;;;;;2.29;86.56;101302.58;1816178;78;21352;-68
2021/03/01 06:20:10;;;;;;;14.90;11.78;;;;;;;2.34;86.48;101303.85;1794716;77;21583;-74
2021/03/01 06:22:43;;;;;;;16.35;12.80;;;;;;;2.40;86.21;101305.56;1795865;78;21039;-73
2021/03/01 06:25:16;;;;;;;12.75;10.78;;;;;;;2.47;86.06;101308.08;1797629;78;21164;-70
2021/03/01 06:27:54;;;;;;;12.45;10.32;;;;;;;2.53;85.77;101310.64;1778969;79;21650;-73
2021/03/01 06:30:37;;;;;;;14.10;11.10;;;;;;;2.60;85.47;101317.91;1786171;79;22252;-77
2021/03/01 06:33:16;;;;;;;14.65;12.10;;;;;;;2.64;85.09;101320.91;1794710;79;20966;-68
2021/03/01 06:35:52;;;;;;;15.28;11.95;;;;;;;2.67;84.87;101326.89;1722368;82;21594;-78
2021/03/01 06:38:35;;;;;;;15.28;13.15;;;;;;;2.69;84.75;101323.03;1799125;77;21578;-65
2021/03/01 06:41:11;;;;;;;16.40;12.43;;;;;;;2.72;84.62;101330.73;1786761;79;20985;-78
2021/03/01 06:44:00;;;;;;;15.98;12.30;;;;;;;2.73;84.38;101329.88;1781320;79;21191;-64
2021/03/01 06:46:30;;;;;;;12.43;10.95;;;;;;;2.75;84.20;101331.16;1788802;79;21005;-65
2021/03/01 06:49:16;;;;;;;16.02;12.40;;;;;;;2.76;84.01;101335.02;1798749;79;21622;-74
2021/03/01 06:51:44;;;;;;;39.35;21.12;;;;;;;2.75;83.94;101338.87;1712664;82;20954;-73
2021/03/01 06:54:22;;;;;;;49.35;22.55;;;;;;;2.79;83.92;101338.86;1721735;82;20970;-72
2021/03/01 06:56:50;;;;;;;33.13;17.87;;;;;;;2.82;83.72;101339.25;1795234;78;21335;-66
2021/03/01 06:59:19;;;;;;;21.25;14.28;;;;;;;2.86;83.62;101337.09;1720838;81;20993;-75
2021/03/01 07:01:55;;;;;;;15.90;12.37;;;;;;;2.89;83.34;101346.09;1735681;82;21017;-82
2021/03/01 07:04:28;;;;;;;15.20;11.63;;;;;;;2.89;83.31;101346.09;1798290;77;20989;-79
2021/03/01 07:06:59;;;;;;;20.35;12.88;;;;;;;2.91;83.21;101349.09;1796863;78;21580;-72
2021/03/01 07:09:32;;;;;;;15.95;11.90;;;;;;;2.96;83.22;101351.64;1802750;77;21060;-77
2021/03/01 07:12:01;;;;;;;14.05;10.88;;;;;;;2.99;83.07;101352.92;1779400;79;21029;-77
2021/03/01 07:14:30;;;;;;;13.13;10.82;;;;;;;3.01;82.91;101358.91;1784510;78;21567;-72
2021/03/01 07:16:59;;;;;;;15.58;11.70;;;;;;;3.06;82.83;101360.19;1792901;77;21685;-74
2021/03/01 07:19:32;;;;;;;26.12;15.85;;;;;;;3.10;82.71;101360.17;1718331;81;20971;-73
2021/03/01 07:22:06;;;;;;;25.97;17.32;;;;;;;3.15;82.39;101365.30;1798587;78;21194;-72
2021/03/01 07:24:36;;;;;;;21.73;15.83;;;;;;;3.18;82.14;101362.72;1803374;78;21705;-73
2021/03/01 07:27:05;;;;;;;21.20;14.63;;;;;;;3.18;82.00;101376.44;1800901;78;21993;-73
2021/03/01 07:29:38;;;;;;;24.98;16.00;;;;;;;3.19;81.94;101378.59;1828490;77;21179;-80
2021/03/01 07:32:09;;;;;;;21.80;14.07;;;;;;;3.23;81.83;101380.25;1822566;77;21101;-74
2021/03/01 07:34:39;;;;;;;29.00;16.42;;;;;;;3.27;81.83;101384.09;1803867;77;21192;-73
2021/03/01 07:37:13;;;;;;;;;;;;;;;3.33;81.56;101386.64;1794954;78;21043;-75
2021/03/01 07:39:41;;;;;;;33.73;18.27;;;;;;;3.39;81.35;101387.48;1813212;78;20578;-74
2021/03/01 07:42:12;;;;;;;24.80;14.58;;;;;;;3.42;81.16;101395.19;1762526;81;21597;-76
2021/03/01 07:44:41;;;;;;;22.67;13.18;;;;;;;3.42;80.76;101388.75;1774269;80;21007;-78
2021/03/01 07:47:09;;;;;;;21.33;13.85;;;;;;;3.39;80.69;101395.20;1794427;78;21180;-74
2021/03/01 07:49:48;;;;;;;20.27;14.20;;;;;;;3.38;80.75;101392.20;1812183;78;21091;-77
2021/03/01 07:52:26;;;;;;;17.92;12.78;;;;;;;3.39;80.75;101392.63;1807927;78;20989;-78
2021/03/01 07:55:03;;;;;;;17.30;12.85;;;;;;;3.41;80.75;101398.63;1806491;78;21666;-79
2021/03/01 07:57:33;;;;;;;13.62;11.10;;;;;;;3.43;80.59;101390.03;1815248;78;21582;-79
2021/03/01 08:00:22;;;;;;;15.18;12.88;;;;;;;3.44;80.27;101396.05;1800470;78;21404;-73
2021/03/01 08:02:53;;;;;;;17.75;12.33;;;;;;;3.41;80.21;101392.19;1790827;78;21084;-78
2021/03/01 08:05:29;;;;;;;15.75;11.68;;;;;;;3.39;80.37;101399.92;1806454;77;20993;-74
2021/03/01 08:08:00;;;;;;;13.70;11.03;;;;;;;3.38;80.19;101403.79;1817552;77;21016;-77
2021/03/01 08:10:37;;;;;;;12.20;9.53;;;;;;;3.40;80.42;101402.06;1810418;78;21412;-63
2021/03/01 08:13:08;;;;;;;12.05;10.28;;;;;;;3.44;80.30;101403.77;1796657;78;22243;-73
2021/03/01 08:15:43;;;;;;;10.80;9.70;;;;;;;3.48;80.23;101411.91;1793102;78;21005;-72
2021/03/01 08:18:13;;;;;;;13.62;10.88;;;;;;;3.50;80.06;101408.45;1808147;78;21066;-63
2021/03/01 08:20:46;;;;;;;11.55;10.38;;;;;;;3.53;80.16;101416.59;1792973;78;21036;-65
2021/03/01 08:23:15;;;;;;;11.18;9.80;;;;;;;3.58;80.08;101408.42;1819348;78;20922;-69
2021/03/01 08:25:49;;;;;;;14.78;11.75;;;;;;;3.66;79.93;101411.78;1808338;78;22167;-73
2021/03/01 08:28:27;;;;;;;11.78;10.40;;;;;;;3.75;79.77;101413.02;1737289;81;21079;-71
2021/03/01 08:30:57;;;;;;;11.85;9.63;;;;;;;3.82;79.37;101415.98;1821663;77;21006;-73
2021/03/01 08:33:26;;;;;;;10.13;8.93;;;;;;;3.89;79.04;101423.25;1812018;78;20954;-71
2021/03/01 08:36:16;;;;;;;11.12;9.73;;;;;;;3.94;78.57;101423.64;1798047;78;21029;-66
2021/03/01 08:38:54;;;;;;;14.18;11.53;;;;;;;3.96;78.25;101430.08;1819334;78;22014;-66
2021/03/01 08:41:37;;;;;;;15.43;12.93;;;;;;;3.98;78.29;101434.80;1794037;77;20946;-63
2021/03/01 08:44:19;;;;;;;12.28;11.00;;;;;;;4.00;78.15;101437.75;1800471;78;21644;-75
2021/03/01 08:46:49;;;;;;;12.28;10.75;;;;;;;4.02;78.15;101441.61;1795050;78;21586;-78
2021/03/01 08:49:25;;;;;;;13.72;11.78;;;;;;;4.05;77.92;101446.74;1816191;78;21105;-70
2021/03/01 08:51:55;;;;;;;14.05;11.00;;;;;;;4.05;77.46;101448.47;1818120;78;21271;-77
2021/03/01 08:54:29;;;;;;;15.18;11.30;;;;;;;4.00;77.53;101455.79;1816197;78;21044;-67
2021/03/01 08:57:04;;;;;;;21.00;14.00;;;;;;;4.00;77.41;101464.81;1798164;78;21085;-76
2021/03/01 08:59:33;;;;;;;16.57;12.25;;;;;;;3.96;77.41;101468.73;1802619;78;20988;-74
2021/03/01 09:02:02;;;;;;;21.55;13.90;;;;;;;3.95;77.59;101456.72;1803312;78;20990;-68
2021/03/01 09:04:31;;;;;;;15.95;11.43;;;;;;;3.98;77.80;101467.86;1797452;77;21359;-69
2021/03/01 09:07:07;;;;;;;13.88;10.85;;;;;;;4.07;77.83;101470.78;1802724;78;21542;-72
2021/03/01 09:09:49;;;;;;;11.53;10.32;;;;;;;4.18;77.28;101472.02;1792728;78;22382;-75
2021/03/01 09:12:19;;;;;;;11.43;10.15;;;;;;;4.24;76.60;101481.00;1800125;78;37499;-66
2021/03/01 09:14:48;;;;;;;12.88;9.60;;;;;;;4.24;76.32;101473.27;1795972;78;21157;-67
2021/03/01 09:17:16;;;;;;;9.20;8.20;;;;;;;4.24;76.01;101475.84;1801882;77;22146;-74
2021/03/01 09:19:45;;;;;;;9.30;8.38;;;;;;;4.18;75.80;101475.45;1808120;78;21622;-67
2021/03/01 09:22:13;;;;;;;9.98;8.58;;;;;;;4.14;76.12;101476.33;1737191;81;21535;-77
2021/03/01 09:24:42;;;;;;;11.55;10.35;;;;;;;4.19;76.42;101476.30;1741991;80;21620;-76
2021/03/01 09:27:10;;;;;;;11.35;9.43;;;;;;;4.33;76.43;101468.05;1741890;81;21570;-76
2021/03/01 09:29:39;;;;;;;10.50;9.30;;;;;;;4.49;76.12;101472.19;1790607;77;22127;-67
2021/03/01 09:32:07;;;;;;;9.43;8.03;;;;;;;4.67;75.75;101473.34;1787615;79;21024;-73
2021/03/01 09:34:36;;;;;;;8.85;7.60;;;;;;;4.86;75.19;101467.98;1753199;79;21127;-70
2021/03/01 09:37:08;;;;;;;8.68;7.72;;;;;;;5.03;74.79;101466.09;1758023;81;21129;-68
2021/03/01 09:39:38;;;;;;;17.55;12.93;;;;;;;5.17;74.33;101468.11;1735047;81;21621;-66
2021/03/01 09:42:08;;;;;;;12.82;9.08;;;;;;;5.29;73.93;101461.48;1741786;81;22205;-63
2021/03/01 09:44:37;;;;;;;10.00;8.58;;;;;;;5.39;73.15;101460.95;1801223;77;21607;-74
2021/03/01 09:47:08;;;;;;;9.80;7.92;;;;;;;5.45;72.72;101460.02;1796809;79;21744;-69
2021/03/01 09:49:41;;;;;;;8.35;7.30;;;;;;;5.50;72.44;101471.16;1797453;77;21021;-64
2021/03/01 09:52:10;;;;;;;8.38;6.97;;;;;;;5.57;72.49;101471.50;1793508;79;20977;-66
2021/03/01 09:54:39;;;;;;;13.38;7.92;;;;;;;5.66;72.00;101468.78;1799121;79;21982;-72
2021/03/01 09:57:09;;;;;;;7.12;6.30;;;;;;;5.72;71.28;101473.87;1796227;79;21159;-67
2021/03/01 09:59:41;;;;;;;7.97;7.17;;;;;;;5.70;70.69;101480.79;1792411;77;21072;-64
2021/03/01 10:02:16;;;;;;;9.68;7.92;;;;;;;5.67;70.70;101483.41;1797692;79;21025;-70
2021/03/01 10:04:45;;;;;;;10.60;8.25;;;;;;;5.64;70.85;101482.16;1776890;77;20962;-67
2021/03/01 10:07:27;;;;;;;6.90;6.30;;;;;;;5.67;70.80;101488.58;1788899;79;21190;-78
2021/03/01 10:09:57;;;;;;;7.30;6.45;;;;;;;5.69;70.44;101495.44;1783511;79;22204;-73
2021/03/01 10:12:28;;;;;;;8.33;7.53;;;;;;;5.68;70.36;101491.58;1791747;79;21060;-78
2021/03/01 10:14:57;;;;;;;9.38;7.62;;;;;;;5.69;70.59;101490.27;1805638;77;21618;-77
2021/03/01 10:17:28;;;;;;;7.53;6.83;;;;;;;5.76;70.43;101483.30;1798896;77;20937;-78
2021/03/01 10:20:10;;;;;;;8.53;7.72;;;;;;;5.84;70.14;101478.89;1782068;80;23524;-75
2021/03/01 10:23:03;;;;;;;8.33;7.40;;;;;;;5.94;69.99;101481.80;1812152;78;21559;-77
2021/03/01 10:25:40;;;;;;;7.40;6.70;;;;;;;6.08;69.51;101480.72;1823686;78;21546;-74
2021/03/01 10:28:29;;;;;;;5.17;4.65;;;;;;;6.16;68.89;101481.47;1819423;78;21040;-78
2021/03/01 10:31:10;;;;;;;5.90;5.40;;;;;;;6.25;68.21;101480.91;1791729;77;22795;-72
2021/03/01 10:34:07;;;;;;;4.90;4.47;;;;;;;6.23;68.05;101479.22;1772645;78;21604;-76
2021/03/01 10:36:59;;;;;;;5.50;5.05;;;;;;;6.26;67.94;101477.44;1776981;80;21332;-72
2021/03/01 10:39:32;;;;;;;6.35;5.78;;;;;;;6.28;67.09;101477.42;1827969;77;21635;-75
2021/03/01 10:42:14;;;;;;;6.00;5.30;;;;;;;6.21;66.80;101479.67;1813505;78;21008;-68
2021/03/01 10:44:47;;;;;;;6.65;6.05;;;;;;;6.12;66.80;101482.39;1817910;77;21010;-71
2021/03/01 10:47:22;;;;;;;8.13;5.83;;;;;;;6.10;67.65;101494.48;1818571;77;21573;-76
2021/03/01 10:49:55;;;;;;;6.83;6.12;;;;;;;6.14;67.97;101487.11;1830696;77;21253;-71
2021/03/01 10:52:24;;;;;;;5.97;5.37;;;;;;;6.19;67.83;101483.58;1827579;77;21623;-77
2021/03/01 10:54:55;;;;;;;6.67;6.08;;;;;;;6.23;67.71;101479.22;1817623;77;21189;-76
2021/03/01 10:57:25;;;;;;;6.42;5.83;;;;;;;6.26;67.33;101469.67;1757993;81;21046;-74
2021/03/01 10:59:55;;;;;;;7.60;6.40;;;;;;;6.31;67.47;101473.49;1776859;78;21011;-76
2021/03/01 11:02:25;;;;;;;6.35;5.75;;;;;;;6.36;67.44;101470.39;1781724;79;21901;-72
2021/03/01 11:04:54;;;;;;;7.20;6.60;;;;;;;6.43;67.84;101471.13;1761707;79;21082;-69
2021/03/01 11:07:25;;;;;;;8.35;5.97;;;;;;;6.48;67.45;101471.91;1784393;79;21597;-65
2021/03/01 11:09:52;;;;;;;6.45;5.83;;;;;;;6.53;67.71;101473.98;1781148;78;21623;-72
2021/03/01 11:12:21;;;;;;;6.90;6.20;;;;;;;6.58;67.33;101474.33;1784905;79;21517;-72
2021/03/01 11:14:49;;;;;;;6.80;6.10;;;;;;;6.65;67.06;101481.55;1781999;79;22167;-73
2021/03/01 11:17:18;;;;;;;6.87;6.10;;;;;;;6.68;66.80;101483.65;1780478;78;21652;-72
2021/03/01 11:19:46;;;;;;;11.40;7.72;;;;;;;6.71;66.78;101482.75;1784367;79;20971;-71
2021/03/01 11:22:17;;;;;;;9.60;6.83;;;;;;;6.79;66.66;101477.00;1783635;78;21094;-73
2021/03/01 11:24:47;;;;;;;8.18;6.35;;;;;;;6.82;66.05;101478.21;1785021;79;21197;-73
2021/03/01 11:27:16;;;;;;;6.72;6.00;;;;;;;6.83;65.84;101483.80;1777643;79;21633;-71
2021/03/01 11:29:44;;;;;;;6.45;5.85;;;;;;;6.84;65.46;101491.13;1794221;78;21610;-76
2021/03/01 11:32:13;;;;;;;11.12;8.95;;;;;;;6.83;65.99;101479.06;1781082;78;21591;-73
2021/03/01 11:34:42;;;;;;;10.88;9.25;;;;;;;6.84;65.90;101481.63;1825329;77;21710;-72
2021/03/01 11:37:10;;;;;;;8.03;6.90;;;;;;;6.83;65.38;101481.66;1823905;76;21576;-68
2021/03/01 11:39:38;;;;;;;7.62;6.78;;;;;;;6.82;65.15;101482.09;1828800;76;22145;-72
2021/03/01 11:42:07;;;;;;;7.12;6.42;;;;;;;6.81;65.00;101480.83;1825887;77;21458;-72
2021/03/01 11:44:35;;;;;;;7.33;6.62;;;;;;;6.78;65.28;101477.88;1819956;77;21478;-71
2021/03/01 11:47:04;;;;;;;8.50;7.12;;;;;;;6.76;65.21;101485.26;1815926;77;21499;-70